sensor_id;sensor_type;location;lat;lon;timestamp;temperature;humidity
10662;DHT22;5379;51.034;7.006;2023-08-06T04:33:33;19.50;99.90
10662;DHT22;5379;51.034;7.006;2023-08-06T04:36:00;19.50;99.90
10662;DHT22;5379;51.034;7.006;2023-08-06T04:38:27;19.50;99.90
10662;DHT22;5379;51.034;7.006;2023-08-06T04:40:53;19.50;99.90
10662;DHT22;5379;51.034;7.006;2023-08-06T04:43:20;19.40;99.90
10662;DHT22;5379;51.034;7.006;2023-08-06T04:45:48;19.40;99.90
10662;DHT22;5379;51.034;7.006;2023-08-06T04:48:18;19.40;99.90
10662;DHT22;5379;51.034;7.006;2023-08-06T04:50:45;19.40;99.90
10662;DHT22;5379;51.034;7.006;2023-08-06T04:53:13;19.40;99.90
10662;DHT22;5379;51.034;7.006;2023-08-06T04:55:40;19.40;99.90
10662;DHT22;5379;51.034;7.006;2023-08-06T04:58:08;19.30;99.90
10662;DHT22;5379;51.034;7.006;2023-08-06T05:00:36;19.40;99.90
10662;DHT22;5379;51.034;7.006;2023-08-06T05:03:03;19.40;99.90
10662;DHT22;5379;51.034;7.006;2023-08-06T05:05:31;19.40;99.90
10662;DHT22;5379;51.034;7.006;2023-08-06T05:07:58;19.20;99.90
10662;DHT22;5379;51.034;7.006;2023-08-06T05:10:25;19.20;99.90
10662;DHT22;5379;51.034;7.006;2023-08-06T05:12:52;19.20;99.90
10662;DHT22;5379;51.034;7.006;2023-08-06T05:15:19;19.30;99.90
10662;DHT22;5379;51.034;7.006;2023-08-06T05:17:46;19.30;99.90
10662;DHT22;5379;51.034;7.006;2023-08-06T05:20:13;19.20;99.90
10662;DHT22;5379;51.034;7.006;2023-08-06T05:22:43;19.20;99.90
10662;DHT22;5379;51.034;7.006;2023-08-06T05:25:12;19.30;99.90
10662;DHT22;5379;51.034;7.006;2023-08-06T05:27:39;19.40;99.90
10662;DHT22;5379;51.034;7.006;2023-08-06T05:30:08;19.50;99.90
10662;DHT22;5379;51.034;7.006;2023-08-06T05:32:35;19.40;99.90
10662;DHT22;5379;51.034;7.006;2023-08-06T05:35:02;19.40;99.90
10662;DHT22;5379;51.034;7.006;2023-08-06T05:37:29;19.40;99.90
10662;DHT22;5379;51.034;7.006;2023-08-06T05:39:57;19.40;99.90
10662;DHT22;5379;51.034;7.006;2023-08-06T05:42:24;19.60;99.90
10662;DHT22;5379;51.034;7.006;2023-08-06T05:44:51;19.60;99.90
10662;DHT22;5379;51.034;7.006;2023-08-06T05:47:18;19.60;99.90
10662;DHT22;5379;51.034;7.006;2023-08-06T05:49:45;19.80;99.90
10662;DHT22;5379;51.034;7.006;2023-08-06T05:52:12;19.70;99.90
10662;DHT22;5379;51.034;7.006;2023-08-06T05:54:39;19.70;99.90
10662;DHT22;5379;51.034;7.006;2023-08-06T05:57:08;19.90;99.90
10662;DHT22;5379;51.034;7.006;2023-08-06T05:59:35;19.80;99.90
10662;DHT22;5379;51.034;7.006;2023-08-06T06:02:02;19.90;99.90
10662;DHT22;5379;51.034;7.006;2023-08-06T06:04:29;19.80;99.90
10662;DHT22;5379;51.034;7.006;2023-08-06T06:06:56;19.70;99.90
10662;DHT22;5379;51.034;7.006;2023-08-06T06:09:23;19.90;99.90
10662;DHT22;5379;51.034;7.006;2023-08-06T06:11:50;19.80;99.90
10662;DHT22;5379;51.034;7.006;2023-08-06T06:14:18;19.80;99.90
10662;DHT22;5379;51.034;7.006;2023-08-06T06:16:45;19.80;99.90
10662;DHT22;5379;51.034;7.006;2023-08-06T06:19:12;19.80;99.90
10662;DHT22;5379;51.034;7.006;2023-08-06T06:21:40;19.80;99.90
10662;DHT22;5379;51.034;7.006;2023-08-06T06:24:07;19.80;99.90
10662;DHT22;5379;51.034;7.006;2023-08-06T06:26:34;19.80;99.90
10662;DHT22;5379;51.034;7.006;2023-08-06T06:29:01;19.80;99.90
10662;DHT22;5379;51.034;7.006;2023-08-06T06:31:29;19.70;99.90
10662;DHT22;5379;51.034;7.006;2023-08-06T06:33:56;19.60;99.90
10662;DHT22;5379;51.034;7.006;2023-08-06T06:36:23;19.60;99.90
10662;DHT22;5379;51.034;7.006;2023-08-06T06:38:50;19.60;99.90
10662;DHT22;5379;51.034;7.006;2023-08-06T06:41:17;19.60;99.90
10662;DHT22;5379;51.034;7.006;2023-08-06T06:43:44;19.60;99.90
10662;DHT22;5379;51.034;7.006;2023-08-06T06:46:11;19.60;99.90
10662;DHT22;5379;51.034;7.006;2023-08-06T06:48:40;19.70;99.90
10662;DHT22;5379;51.034;7.006;2023-08-06T06:51:06;19.80;99.90
10662;DHT22;5379;51.034;7.006;2023-08-06T06:53:33;19.90;99.90
10662;DHT22;5379;51.034;7.006;2023-08-06T06:56:02;20.00;99.90
10662;DHT22;5379;51.034;7.006;2023-08-06T06:58:30;19.80;99.90
10662;DHT22;5379;51.034;7.006;2023-08-06T07:00:57;19.80;99.90
10662;DHT22;5379;51.034;7.006;2023-08-06T07:03:24;19.80;99.90
10662;DHT22;5379;51.034;7.006;2023-08-06T07:05:56;20.00;99.90
10662;DHT22;5379;51.034;7.006;2023-08-06T07:08:23;20.00;99.90
10662;DHT22;5379;51.034;7.006;2023-08-06T07:10:50;20.10;99.90
10662;DHT22;5379;51.034;7.006;2023-08-06T07:13:17;19.90;99.90
10662;DHT22;5379;51.034;7.006;2023-08-06T07:15:44;19.90;99.90
10662;DHT22;5379;51.034;7.006;2023-08-06T07:18:11;20.10;99.90
10662;DHT22;5379;51.034;7.006;2023-08-06T07:20:38;20.20;99.90
10662;DHT22;5379;51.034;7.006;2023-08-06T07:23:06;20.10;99.90
10662;DHT22;5379;51.034;7.006;2023-08-06T07:25:33;20.20;99.90
10662;DHT22;5379;51.034;7.006;2023-08-06T07:28:00;20.10;99.90
10662;DHT22;5379;51.034;7.006;2023-08-06T07:30:27;20.10;99.90
10662;DHT22;5379;51.034;7.006;2023-08-06T07:32:54;20.10;99.90
10662;DHT22;5379;51.034;7.006;2023-08-06T07:35:21;20.10;99.90
10662;DHT22;5379;51.034;7.006;2023-08-06T07:37:48;20.20;99.90
10662;DHT22;5379;51.034;7.006;2023-08-06T07:40:16;20.20;99.90
10662;DHT22;5379;51.034;7.006;2023-08-06T07:42:43;20.20;99.90
10662;DHT22;5379;51.034;7.006;2023-08-06T07:45:10;20.30;99.90
10662;DHT22;5379;51.034;7.006;2023-08-06T07:47:37;20.20;99.90
10662;DHT22;5379;51.034;7.006;2023-08-06T07:50:05;20.20;99.90
10662;DHT22;5379;51.034;7.006;2023-08-06T07:52:32;20.30;99.90
10662;DHT22;5379;51.034;7.006;2023-08-06T07:54:59;20.30;99.90
10662;DHT22;5379;51.034;7.006;2023-08-06T07:57:28;20.40;99.90
10662;DHT22;5379;51.034;7.006;2023-08-06T07:59:55;20.50;99.90
10662;DHT22;5379;51.034;7.006;2023-08-06T08:02:22;20.30;99.90
10662;DHT22;5379;51.034;7.006;2023-08-06T08:04:49;20.30;99.90
10662;DHT22;5379;51.034;7.006;2023-08-06T08:07:16;20.50;99.90
10662;DHT22;5379;51.034;7.006;2023-08-06T08:09:43;20.60;99.90
10662;DHT22;5379;51.034;7.006;2023-08-06T08:12:10;20.90;99.90
10662;DHT22;5379;51.034;7.006;2023-08-06T08:14:38;21.00;99.90
10662;DHT22;5379;51.034;7.006;2023-08-06T08:17:06;20.80;99.90
10662;DHT22;5379;51.034;7.006;2023-08-06T08:19:33;20.80;99.90
10662;DHT22;5379;51.034;7.006;2023-08-06T08:22:00;20.80;99.90
10662;DHT22;5379;51.034;7.006;2023-08-06T08:24:27;21.50;99.90
10662;DHT22;5379;51.034;7.006;2023-08-06T08:26:55;21.40;99.90
10662;DHT22;5379;51.034;7.006;2023-08-06T08:29:22;21.20;99.90
10662;DHT22;5379;51.034;7.006;2023-08-06T08:31:51;21.30;99.90
10662;DHT22;5379;51.034;7.006;2023-08-06T08:34:18;21.90;99.90
10662;DHT22;5379;51.034;7.006;2023-08-06T08:36:45;22.30;99.90
10662;DHT22;5379;51.034;7.006;2023-08-06T08:39:13;22.20;99.90
10662;DHT22;5379;51.034;7.006;2023-08-06T08:41:40;22.10;99.90
10662;DHT22;5379;51.034;7.006;2023-08-06T08:44:09;22.20;99.90
10662;DHT22;5379;51.034;7.006;2023-08-06T08:46:37;22.10;99.90
10662;DHT22;5379;51.034;7.006;2023-08-06T08:49:06;22.00;99.90
10662;DHT22;5379;51.034;7.006;2023-08-06T08:51:33;22.30;99.90
10662;DHT22;5379;51.034;7.006;2023-08-06T08:54:03;22.90;99.90
10662;DHT22;5379;51.034;7.006;2023-08-06T08:56:30;23.00;99.90
10662;DHT22;5379;51.034;7.006;2023-08-06T08:58:57;23.00;99.90
10662;DHT22;5379;51.034;7.006;2023-08-06T09:01:25;23.30;99.90
10662;DHT22;5379;51.034;7.006;2023-08-06T09:03:54;23.50;99.90
10662;DHT22;5379;51.034;7.006;2023-08-06T09:06:24;23.80;99.90
10662;DHT22;5379;51.034;7.006;2023-08-06T09:09:00;23.80;99.90
10662;DHT22;5379;51.034;7.006;2023-08-06T09:11:30;23.70;99.90
10662;DHT22;5379;51.034;7.006;2023-08-06T09:14:06;23.10;99.90
10662;DHT22;5379;51.034;7.006;2023-08-06T09:16:34;23.00;99.90
10662;DHT22;5379;51.034;7.006;2023-08-06T09:19:07;23.40;99.90
10662;DHT22;5379;51.034;7.006;2023-08-06T09:21:37;22.90;99.90
10662;DHT22;5379;51.034;7.006;2023-08-06T09:24:08;22.20;99.90
10662;DHT22;5379;51.034;7.006;2023-08-06T09:26:37;21.70;99.90
10662;DHT22;5379;51.034;7.006;2023-08-06T09:29:05;21.40;99.90
10662;DHT22;5379;51.034;7.006;2023-08-06T09:31:34;20.90;99.90
10662;DHT22;5379;51.034;7.006;2023-08-06T09:34:10;20.70;99.90
10662;DHT22;5379;51.034;7.006;2023-08-06T09:36:41;20.90;99.90
10662;DHT22;5379;51.034;7.006;2023-08-06T09:39:13;21.10;99.90
10662;DHT22;5379;51.034;7.006;2023-08-06T09:41:39;21.10;99.90
10662;DHT22;5379;51.034;7.006;2023-08-06T09:44:15;21.20;99.90
10662;DHT22;5379;51.034;7.006;2023-08-06T09:46:47;21.60;99.90
10662;DHT22;5379;51.034;7.006;2023-08-06T09:49:14;22.10;99.90
10662;DHT22;5379;51.034;7.006;2023-08-06T09:51:43;22.70;99.90
10662;DHT22;5379;51.034;7.006;2023-08-06T09:54:12;22.40;99.90
10662;DHT22;5379;51.034;7.006;2023-08-06T09:56:39;22.50;99.90
10662;DHT22;5379;51.034;7.006;2023-08-06T09:59:07;22.80;99.90
10662;DHT22;5379;51.034;7.006;2023-08-06T10:01:34;23.10;99.90
10662;DHT22;5379;51.034;7.006;2023-08-06T10:04:03;23.60;99.90
10662;DHT22;5379;51.034;7.006;2023-08-06T10:06:34;23.40;99.90
10662;DHT22;5379;51.034;7.006;2023-08-06T10:09:05;23.20;99.90
10662;DHT22;5379;51.034;7.006;2023-08-06T10:11:33;23.10;99.90
10662;DHT22;5379;51.034;7.006;2023-08-06T10:14:06;23.40;99.90
10662;DHT22;5379;51.034;7.006;2023-08-06T10:16:35;23.50;99.90
10662;DHT22;5379;51.034;7.006;2023-08-06T10:19:04;22.70;99.90
10662;DHT22;5379;51.034;7.006;2023-08-06T10:21:32;22.50;99.90
10662;DHT22;5379;51.034;7.006;2023-08-06T10:23:59;22.50;99.90
10662;DHT22;5379;51.034;7.006;2023-08-06T10:26:29;22.30;99.90
10662;DHT22;5379;51.034;7.006;2023-08-06T10:28:56;22.30;99.90
10662;DHT22;5379;51.034;7.006;2023-08-06T10:31:54;22.30;99.90
10662;DHT22;5379;51.034;7.006;2023-08-06T10:34:21;22.20;99.90
10662;DHT22;5379;51.034;7.006;2023-08-06T10:36:49;22.60;99.90
10662;DHT22;5379;51.034;7.006;2023-08-06T10:39:17;22.50;99.90
10662;DHT22;5379;51.034;7.006;2023-08-06T10:41:46;22.30;99.90
10662;DHT22;5379;51.034;7.006;2023-08-06T10:44:14;22.60;99.90
10662;DHT22;5379;51.034;7.006;2023-08-06T10:46:41;22.40;99.90
10662;DHT22;5379;51.034;7.006;2023-08-06T10:49:08;22.30;99.90
10662;DHT22;5379;51.034;7.006;2023-08-06T10:51:35;22.60;99.90
10662;DHT22;5379;51.034;7.006;2023-08-06T10:54:03;22.50;99.90
10662;DHT22;5379;51.034;7.006;2023-08-06T10:56:31;22.30;99.90
10662;DHT22;5379;51.034;7.006;2023-08-06T10:59:07;22.30;99.90
10662;DHT22;5379;51.034;7.006;2023-08-06T11:01:36;22.40;99.90
10662;DHT22;5379;51.034;7.006;2023-08-06T11:04:06;22.10;99.90
10662;DHT22;5379;51.034;7.006;2023-08-06T11:06:33;22.20;99.90
10662;DHT22;5379;51.034;7.006;2023-08-06T11:09:01;22.50;99.90
10662;DHT22;5379;51.034;7.006;2023-08-06T11:11:28;22.30;99.90
10662;DHT22;5379;51.034;7.006;2023-08-06T11:13:55;22.20;99.90
10662;DHT22;5379;51.034;7.006;2023-08-06T11:16:24;22.20;99.90
10662;DHT22;5379;51.034;7.006;2023-08-06T11:18:51;22.10;99.90
10662;DHT22;5379;51.034;7.006;2023-08-06T11:21:19;21.90;99.90
10662;DHT22;5379;51.034;7.006;2023-08-06T11:23:46;21.80;99.90
10662;DHT22;5379;51.034;7.006;2023-08-06T11:26:18;21.80;99.90
10662;DHT22;5379;51.034;7.006;2023-08-06T11:28:45;21.90;99.90
10662;DHT22;5379;51.034;7.006;2023-08-06T11:31:19;21.90;99.90
10662;DHT22;5379;51.034;7.006;2023-08-06T11:33:47;22.20;99.90
10662;DHT22;5379;51.034;7.006;2023-08-06T11:36:16;22.00;99.90
10662;DHT22;5379;51.034;7.006;2023-08-06T11:38:54;22.30;99.90
10662;DHT22;5379;51.034;7.006;2023-08-06T11:41:21;22.10;99.90
10662;DHT22;5379;51.034;7.006;2023-08-06T11:43:48;22.20;99.90
10662;DHT22;5379;51.034;7.006;2023-08-06T11:46:15;22.30;99.90
10662;DHT22;5379;51.034;7.006;2023-08-06T11:48:54;22.70;99.90
10662;DHT22;5379;51.034;7.006;2023-08-06T11:51:22;22.50;99.90
10662;DHT22;5379;51.034;7.006;2023-08-06T11:53:51;22.50;99.90
10662;DHT22;5379;51.034;7.006;2023-08-06T11:56:20;22.60;99.90
10662;DHT22;5379;51.034;7.006;2023-08-06T11:58:47;22.50;99.90
10662;DHT22;5379;51.034;7.006;2023-08-06T12:01:14;22.60;99.90
10662;DHT22;5379;51.034;7.006;2023-08-06T12:03:41;22.60;99.90
10662;DHT22;5379;51.034;7.006;2023-08-06T12:06:10;22.50;99.90
10662;DHT22;5379;51.034;7.006;2023-08-06T12:08:37;22.20;99.90
10662;DHT22;5379;51.034;7.006;2023-08-06T12:11:04;22.30;99.90
10662;DHT22;5379;51.034;7.006;2023-08-06T12:13:31;22.50;99.90
10662;DHT22;5379;51.034;7.006;2023-08-06T12:15:58;22.30;99.90
10662;DHT22;5379;51.034;7.006;2023-08-06T12:18:25;22.20;99.90
10662;DHT22;5379;51.034;7.006;2023-08-06T12:20:52;22.10;99.90
10662;DHT22;5379;51.034;7.006;2023-08-06T12:23:20;22.20;99.90
10662;DHT22;5379;51.034;7.006;2023-08-06T12:25:47;22.50;99.90
10662;DHT22;5379;51.034;7.006;2023-08-06T12:28:15;22.40;99.90
10662;DHT22;5379;51.034;7.006;2023-08-06T12:30:42;22.40;99.90
10662;DHT22;5379;51.034;7.006;2023-08-06T12:33:10;22.30;99.90
10662;DHT22;5379;51.034;7.006;2023-08-06T12:35:37;22.60;99.90
10662;DHT22;5379;51.034;7.006;2023-08-06T12:38:04;22.80;99.90
10662;DHT22;5379;51.034;7.006;2023-08-06T12:40:32;22.30;99.90
10662;DHT22;5379;51.034;7.006;2023-08-06T12:42:59;22.30;99.90
10662;DHT22;5379;51.034;7.006;2023-08-06T12:45:26;22.20;99.90
10662;DHT22;5379;51.034;7.006;2023-08-06T12:47:53;21.90;99.90
10662;DHT22;5379;51.034;7.006;2023-08-06T12:50:20;21.90;99.90
10662;DHT22;5379;51.034;7.006;2023-08-06T12:52:46;21.60;99.90
10662;DHT22;5379;51.034;7.006;2023-08-06T12:55:13;21.80;99.90
10662;DHT22;5379;51.034;7.006;2023-08-06T12:57:42;22.30;99.90
10662;DHT22;5379;51.034;7.006;2023-08-06T13:00:09;22.10;99.90
10662;DHT22;5379;51.034;7.006;2023-08-06T13:02:36;21.80;99.90
10662;DHT22;5379;51.034;7.006;2023-08-06T13:05:03;22.00;99.90
10662;DHT22;5379;51.034;7.006;2023-08-06T13:07:31;22.70;99.90
10662;DHT22;5379;51.034;7.006;2023-08-06T13:09:58;22.70;99.90
10662;DHT22;5379;51.034;7.006;2023-08-06T13:12:25;22.80;99.90
10662;DHT22;5379;51.034;7.006;2023-08-06T13:14:53;22.60;99.90
10662;DHT22;5379;51.034;7.006;2023-08-06T13:17:23;22.00;99.90
10662;DHT22;5379;51.034;7.006;2023-08-06T13:19:50;22.30;99.90
10662;DHT22;5379;51.034;7.006;2023-08-06T13:22:17;22.50;99.90
10662;DHT22;5379;51.034;7.006;2023-08-06T13:24:44;22.40;99.90
10662;DHT22;5379;51.034;7.006;2023-08-06T13:27:11;22.60;99.90
10662;DHT22;5379;51.034;7.006;2023-08-06T13:29:38;23.10;99.90
10662;DHT22;5379;51.034;7.006;2023-08-06T13:32:06;23.00;99.90
10662;DHT22;5379;51.034;7.006;2023-08-06T13:34:33;23.10;99.90
10662;DHT22;5379;51.034;7.006;2023-08-06T13:37:00;23.00;99.90
10662;DHT22;5379;51.034;7.006;2023-08-06T13:39:28;22.90;99.90
10662;DHT22;5379;51.034;7.006;2023-08-06T13:41:54;22.80;99.90
10662;DHT22;5379;51.034;7.006;2023-08-06T13:44:21;22.40;99.90
10662;DHT22;5379;51.034;7.006;2023-08-06T13:46:48;22.70;99.90
10662;DHT22;5379;51.034;7.006;2023-08-06T13:49:17;22.50;99.90
10662;DHT22;5379;51.034;7.006;2023-08-06T13:51:43;22.20;99.90
10662;DHT22;5379;51.034;7.006;2023-08-06T13:54:10;22.00;99.90
10662;DHT22;5379;51.034;7.006;2023-08-06T13:56:37;22.30;99.90
10662;DHT22;5379;51.034;7.006;2023-08-06T13:59:04;22.50;99.90
10662;DHT22;5379;51.034;7.006;2023-08-06T14:01:32;22.30;99.90
10662;DHT22;5379;51.034;7.006;2023-08-06T14:03:59;22.80;99.90
10662;DHT22;5379;51.034;7.006;2023-08-06T14:06:27;23.10;99.90
10662;DHT22;5379;51.034;7.006;2023-08-06T14:08:54;22.90;99.90
10662;DHT22;5379;51.034;7.006;2023-08-06T14:11:21;22.60;99.90
10662;DHT22;5379;51.034;7.006;2023-08-06T14:13:48;22.60;99.90
10662;DHT22;5379;51.034;7.006;2023-08-06T14:16:15;22.70;99.90
10662;DHT22;5379;51.034;7.006;2023-08-06T14:18:42;22.70;99.90
10662;DHT22;5379;51.034;7.006;2023-08-06T14:21:09;22.40;99.90
10662;DHT22;5379;51.034;7.006;2023-08-06T14:23:37;22.60;99.90
10662;DHT22;5379;51.034;7.006;2023-08-06T14:26:07;22.30;99.90
10662;DHT22;5379;51.034;7.006;2023-08-06T14:28:36;22.70;99.90
10662;DHT22;5379;51.034;7.006;2023-08-06T14:31:03;22.80;99.90
10662;DHT22;5379;51.034;7.006;2023-08-06T14:33:30;23.40;99.90
10662;DHT22;5379;51.034;7.006;2023-08-06T14:35:56;23.60;99.90
10662;DHT22;5379;51.034;7.006;2023-08-06T14:38:23;24.10;99.90
10662;DHT22;5379;51.034;7.006;2023-08-06T14:40:52;23.80;99.90
10662;DHT22;5379;51.034;7.006;2023-08-06T14:43:19;23.10;99.90
10662;DHT22;5379;51.034;7.006;2023-08-06T14:45:46;23.10;99.90
10662;DHT22;5379;51.034;7.006;2023-08-06T14:48:13;22.70;99.90
10662;DHT22;5379;51.034;7.006;2023-08-06T14:50:40;22.80;99.90
10662;DHT22;5379;51.034;7.006;2023-08-06T14:53:07;22.80;99.90
10662;DHT22;5379;51.034;7.006;2023-08-06T14:55:36;22.90;99.90
10662;DHT22;5379;51.034;7.006;2023-08-06T14:58:04;23.00;99.90
10662;DHT22;5379;51.034;7.006;2023-08-06T15:00:31;23.10;99.90
10662;DHT22;5379;51.034;7.006;2023-08-06T15:02:58;23.10;99.90
10662;DHT22;5379;51.034;7.006;2023-08-06T15:05:25;22.90;99.90
10662;DHT22;5379;51.034;7.006;2023-08-06T15:07:52;23.00;99.90
10662;DHT22;5379;51.034;7.006;2023-08-06T15:10:19;23.00;99.90
10662;DHT22;5379;51.034;7.006;2023-08-06T15:12:46;22.90;99.90
10662;DHT22;5379;51.034;7.006;2023-08-06T15:15:15;23.00;99.90
10662;DHT22;5379;51.034;7.006;2023-08-06T15:17:42;22.80;99.90
10662;DHT22;5379;51.034;7.006;2023-08-06T15:20:10;22.90;99.90
10662;DHT22;5379;51.034;7.006;2023-08-06T15:22:37;22.70;99.90
10662;DHT22;5379;51.034;7.006;2023-08-06T15:25:04;22.60;99.90
10662;DHT22;5379;51.034;7.006;2023-08-06T15:27:31;22.40;99.90
10662;DHT22;5379;51.034;7.006;2023-08-06T15:29:59;22.60;99.90
10662;DHT22;5379;51.034;7.006;2023-08-06T15:32:27;22.10;99.90
10662;DHT22;5379;51.034;7.006;2023-08-06T15:34:54;22.20;99.90
10662;DHT22;5379;51.034;7.006;2023-08-06T15:37:22;21.60;99.90
10662;DHT22;5379;51.034;7.006;2023-08-06T15:39:49;20.50;99.90
10662;DHT22;5379;51.034;7.006;2023-08-06T15:42:16;20.20;99.90
10662;DHT22;5379;51.034;7.006;2023-08-06T15:44:43;20.30;99.90
10662;DHT22;5379;51.034;7.006;2023-08-06T15:47:10;20.10;99.90
10662;DHT22;5379;51.034;7.006;2023-08-06T15:49:39;20.50;99.90
10662;DHT22;5379;51.034;7.006;2023-08-06T15:52:06;20.90;99.90
10662;DHT22;5379;51.034;7.006;2023-08-06T15:54:33;21.10;99.90
10662;DHT22;5379;51.034;7.006;2023-08-06T15:57:00;21.50;99.90
10662;DHT22;5379;51.034;7.006;2023-08-06T15:59:29;21.70;99.90
10662;DHT22;5379;51.034;7.006;2023-08-06T16:01:56;21.90;99.90
10662;DHT22;5379;51.034;7.006;2023-08-06T16:04:25;22.20;99.90
10662;DHT22;5379;51.034;7.006;2023-08-06T16:06:53;22.40;99.90
10662;DHT22;5379;51.034;7.006;2023-08-06T16:09:20;22.50;99.90
10662;DHT22;5379;51.034;7.006;2023-08-06T16:11:49;22.50;99.90
10662;DHT22;5379;51.034;7.006;2023-08-06T16:14:16;22.60;99.90
10662;DHT22;5379;51.034;7.006;2023-08-06T16:16:44;22.80;99.90
10662;DHT22;5379;51.034;7.006;2023-08-06T16:19:11;23.00;99.90
10662;DHT22;5379;51.034;7.006;2023-08-06T16:21:37;23.00;99.90
10662;DHT22;5379;51.034;7.006;2023-08-06T16:24:07;23.30;99.90
10662;DHT22;5379;51.034;7.006;2023-08-06T16:26:34;23.40;99.90
10662;DHT22;5379;51.034;7.006;2023-08-06T16:29:01;23.10;99.90
10662;DHT22;5379;51.034;7.006;2023-08-06T16:31:28;23.10;99.90
10662;DHT22;5379;51.034;7.006;2023-08-06T16:33:55;23.10;99.90
10662;DHT22;5379;51.034;7.006;2023-08-06T16:36:22;22.90;99.90
10662;DHT22;5379;51.034;7.006;2023-08-06T16:38:49;22.60;99.90
10662;DHT22;5379;51.034;7.006;2023-08-06T16:41:18;21.10;99.90
10662;DHT22;5379;51.034;7.006;2023-08-06T16:43:45;21.20;99.90
10662;DHT22;5379;51.034;7.006;2023-08-06T16:46:12;20.90;99.90
10662;DHT22;5379;51.034;7.006;2023-08-06T16:48:39;21.50;99.90
10662;DHT22;5379;51.034;7.006;2023-08-06T16:51:06;22.10;99.90
10662;DHT22;5379;51.034;7.006;2023-08-06T16:53:33;22.50;99.90
10662;DHT22;5379;51.034;7.006;2023-08-06T16:56:00;22.20;99.90
10662;DHT22;5379;51.034;7.006;2023-08-06T16:58:28;22.30;99.90
10662;DHT22;5379;51.034;7.006;2023-08-06T17:00:55;21.90;99.90
10662;DHT22;5379;51.034;7.006;2023-08-06T17:03:25;22.40;99.90
10662;DHT22;5379;51.034;7.006;2023-08-06T17:05:52;22.30;99.90
10662;DHT22;5379;51.034;7.006;2023-08-06T17:08:19;22.60;99.90
10662;DHT22;5379;51.034;7.006;2023-08-06T17:10:46;22.80;99.90
10662;DHT22;5379;51.034;7.006;2023-08-06T17:13:13;22.80;99.90
10662;DHT22;5379;51.034;7.006;2023-08-06T17:15:43;22.30;99.90
10662;DHT22;5379;51.034;7.006;2023-08-06T17:18:11;22.50;99.90
10662;DHT22;5379;51.034;7.006;2023-08-06T17:20:41;22.40;99.90
10662;DHT22;5379;51.034;7.006;2023-08-06T17:23:08;22.40;99.90
10662;DHT22;5379;51.034;7.006;2023-08-06T17:25:35;22.40;99.90
10662;DHT22;5379;51.034;7.006;2023-08-06T17:28:02;22.30;99.90
10662;DHT22;5379;51.034;7.006;2023-08-06T17:30:30;22.20;99.90
10662;DHT22;5379;51.034;7.006;2023-08-06T17:32:59;22.20;99.90
10662;DHT22;5379;51.034;7.006;2023-08-06T17:35:26;22.10;99.90
10662;DHT22;5379;51.034;7.006;2023-08-06T17:37:54;21.90;99.90
10662;DHT22;5379;51.034;7.006;2023-08-06T17:40:22;22.30;99.90
10662;DHT22;5379;51.034;7.006;2023-08-06T17:42:49;22.60;99.90
10662;DHT22;5379;51.034;7.006;2023-08-06T17:45:17;22.60;99.90
10662;DHT22;5379;51.034;7.006;2023-08-06T17:47:44;22.50;99.90
10662;DHT22;5379;51.034;7.006;2023-08-06T17:50:12;22.70;99.90
10662;DHT22;5379;51.034;7.006;2023-08-06T17:52:39;22.10;99.90
10662;DHT22;5379;51.034;7.006;2023-08-06T17:55:07;22.40;99.90
10662;DHT22;5379;51.034;7.006;2023-08-06T17:57:34;22.60;99.90
10662;DHT22;5379;51.034;7.006;2023-08-06T18:00:01;22.60;99.90
10662;DHT22;5379;51.034;7.006;2023-08-06T18:02:28;22.50;99.90
10662;DHT22;5379;51.034;7.006;2023-08-06T18:04:55;22.90;99.90
10662;DHT22;5379;51.034;7.006;2023-08-06T18:07:24;22.40;99.90
10662;DHT22;5379;51.034;7.006;2023-08-06T18:09:51;22.50;99.90
10662;DHT22;5379;51.034;7.006;2023-08-06T18:12:18;22.50;99.90
10662;DHT22;5379;51.034;7.006;2023-08-06T18:14:45;22.50;99.90
10662;DHT22;5379;51.034;7.006;2023-08-06T18:17:12;22.40;99.90
10662;DHT22;5379;51.034;7.006;2023-08-06T18:19:39;22.40;99.90
10662;DHT22;5379;51.034;7.006;2023-08-06T18:22:06;22.50;99.90
10662;DHT22;5379;51.034;7.006;2023-08-06T18:24:35;22.40;99.90
10662;DHT22;5379;51.034;7.006;2023-08-06T18:27:02;22.40;99.90
10662;DHT22;5379;51.034;7.006;2023-08-06T18:29:29;22.60;99.90
10662;DHT22;5379;51.034;7.006;2023-08-06T18:31:56;22.00;99.90
10662;DHT22;5379;51.034;7.006;2023-08-06T18:34:23;22.00;99.90
10662;DHT22;5379;51.034;7.006;2023-08-06T18:36:49;21.80;99.90
10662;DHT22;5379;51.034;7.006;2023-08-06T18:39:16;21.60;99.90
10662;DHT22;5379;51.034;7.006;2023-08-06T18:41:45;21.70;99.90
10662;DHT22;5379;51.034;7.006;2023-08-06T18:44:12;21.80;99.90
10662;DHT22;5379;51.034;7.006;2023-08-06T18:46:39;22.10;99.90
10662;DHT22;5379;51.034;7.006;2023-08-06T18:49:05;22.30;99.90
10662;DHT22;5379;51.034;7.006;2023-08-06T18:51:32;21.90;99.90
10662;DHT22;5379;51.034;7.006;2023-08-06T18:54:00;21.90;99.90
10662;DHT22;5379;51.034;7.006;2023-08-06T18:56:27;22.00;99.90
10662;DHT22;5379;51.034;7.006;2023-08-06T18:58:55;22.00;99.90
10662;DHT22;5379;51.034;7.006;2023-08-06T19:01:22;21.70;99.90
10662;DHT22;5379;51.034;7.006;2023-08-06T19:03:49;21.40;99.90
10662;DHT22;5379;51.034;7.006;2023-08-06T19:06:16;21.60;99.90
10662;DHT22;5379;51.034;7.006;2023-08-06T19:08:43;21.90;99.90
10662;DHT22;5379;51.034;7.006;2023-08-06T19:11:10;22.10;99.90
10662;DHT22;5379;51.034;7.006;2023-08-06T19:13:37;22.20;99.90
10662;DHT22;5379;51.034;7.006;2023-08-06T19:16:05;21.40;99.90
10662;DHT22;5379;51.034;7.006;2023-08-06T19:18:32;21.80;99.90
10662;DHT22;5379;51.034;7.006;2023-08-06T19:21:00;21.90;99.90
10662;DHT22;5379;51.034;7.006;2023-08-06T19:23:27;21.80;99.90
10662;DHT22;5379;51.034;7.006;2023-08-06T19:25:54;21.90;99.90
10662;DHT22;5379;51.034;7.006;2023-08-06T19:28:21;22.20;99.90
10662;DHT22;5379;51.034;7.006;2023-08-06T19:30:48;22.20;99.90
10662;DHT22;5379;51.034;7.006;2023-08-06T19:33:16;22.50;99.90
10662;DHT22;5379;51.034;7.006;2023-08-06T19:35:47;22.40;99.90
10662;DHT22;5379;51.034;7.006;2023-08-06T19:38:14;22.30;99.90
10662;DHT22;5379;51.034;7.006;2023-08-06T19:40:42;22.20;99.90
10662;DHT22;5379;51.034;7.006;2023-08-06T19:43:09;22.20;99.90
10662;DHT22;5379;51.034;7.006;2023-08-06T19:45:36;22.30;99.90
10662;DHT22;5379;51.034;7.006;2023-08-06T19:48:06;22.10;99.90
10662;DHT22;5379;51.034;7.006;2023-08-06T19:50:35;22.30;99.90
10662;DHT22;5379;51.034;7.006;2023-08-06T19:53:02;22.30;99.90
10662;DHT22;5379;51.034;7.006;2023-08-06T19:55:32;22.40;99.90
10662;DHT22;5379;51.034;7.006;2023-08-06T19:58:01;22.50;99.90
10662;DHT22;5379;51.034;7.006;2023-08-06T20:02:55;22.40;99.90
10662;DHT22;5379;51.034;7.006;2023-08-06T20:10:18;22.30;99.90
10662;DHT22;5379;51.034;7.006;2023-08-06T20:12:45;22.50;99.90
10662;DHT22;5379;51.034;7.006;2023-08-06T20:15:12;22.50;99.90
10662;DHT22;5379;51.034;7.006;2023-08-06T20:17:38;22.40;99.90
10662;DHT22;5379;51.034;7.006;2023-08-06T20:20:07;22.80;99.90
10662;DHT22;5379;51.034;7.006;2023-08-06T20:22:34;22.70;99.90
10662;DHT22;5379;51.034;7.006;2023-08-06T20:25:03;22.70;99.90
10662;DHT22;5379;51.034;7.006;2023-08-06T20:27:30;22.80;99.90